Time;durP1;ratioP1;P1;durP2;ratioP2;P2;SDS_P1;SDS_P2;PMS_P1;PMS_P2;Temp;Humidity;BMP_temperature;BMP_pressure;BME280_temperature;BME280_humidity;BME280_pressure;Samples;Min_cycle;Max_cycle;Signal;HPM_P1;HPM_P2
2023/07/27 00:00:24;;;;;;;6.25;5.85;;;;;;;16.07;76.95;100237.69;6165066;23;20223;-68
2023/07/27 00:02:51;;;;;;;6.63;5.70;;;;;;;16.48;76.54;100313.72;6145894;23;20088;-68
2023/07/27 00:05:17;;;;;;;6.00;5.60;;;;;;;16.38;77.04;100293.41;6172361;23;20032;-68
2023/07/27 00:07:44;;;;;;;6.10;5.70;;;;;;;16.27;77.44;100271.28;6145888;23;20020;-69
2023/07/27 00:10:10;;;;;;;5.97;5.50;;;;;;;16.48;76.94;100311.06;6170564;23;20810;-69
2023/07/27 00:12:37;;;;;;;6.60;6.10;;;;;;;16.27;77.43;100276.59;6171002;23;20044;-69
2023/07/27 00:15:04;;;;;;;6.18;5.78;;;;;;;16.20;77.50;100264.84;6166634;23;20088;-69
2023/07/27 00:17:30;;;;;;;5.60;5.30;;;;;;;16.07;77.26;100250.94;6143751;23;20096;-69
2023/07/27 00:19:57;;;;;;;6.30;5.80;;;;;;;16.29;77.17;100287.06;6167649;23;20036;-70
2023/07/27 00:22:24;;;;;;;6.15;5.75;;;;;;;16.15;77.70;100269.66;6149522;23;20157;-70
2023/07/27 00:24:50;;;;;;;6.30;5.90;;;;;;;16.41;77.50;100309.03;6151020;23;20080;-70
2023/07/27 00:27:17;;;;;;;6.13;5.72;;;;;;;16.39;78.03;100309.16;6173400;23;20032;-69
2023/07/27 00:29:43;;;;;;;6.20;5.80;;;;;;;16.35;78.07;100295.34;6170634;23;20067;-70
2023/07/27 00:32:09;;;;;;;6.97;6.45;;;;;;;16.19;78.49;100281.69;6173757;23;20114;-69
2023/07/27 00:34:36;;;;;;;6.60;5.97;;;;;;;15.92;78.23;100245.09;6143547;23;20031;-70
2023/07/27 00:37:02;;;;;;;6.32;5.93;;;;;;;16.28;78.38;100312.72;6169191;23;20024;-69
2023/07/27 00:39:29;;;;;;;6.03;5.65;;;;;;;16.26;78.75;100311.16;6173357;23;20083;-70
2023/07/27 00:41:55;;;;;;;6.22;5.82;;;;;;;16.24;79.29;100313.09;6141077;23;20044;-69
2023/07/27 00:44:21;;;;;;;6.70;6.20;;;;;;;16.11;79.03;100289.41;6168385;23;20376;-70
2023/07/27 00:46:49;;;;;;;6.10;5.70;;;;;;;16.22;79.58;100305.28;6146097;23;20336;-70
2023/07/27 00:49:16;;;;;;;6.00;5.60;;;;;;;16.21;78.98;100300.94;6166132;22;20084;-69
2023/07/27 00:51:44;;;;;;;6.57;6.00;;;;;;;15.76;80.03;100240.22;6139847;23;20556;-70
2023/07/27 00:54:11;;;;;;;6.38;5.97;;;;;;;16.19;79.90;100310.81;6150213;23;20033;-69
2023/07/27 00:56:38;;;;;;;6.35;5.95;;;;;;;16.19;79.87;100305.50;6169070;23;20417;-69
2023/07/27 00:59:06;;;;;;;6.05;5.65;;;;;;;16.18;79.79;100303.84;6141503;23;20025;-69
2023/07/27 01:01:33;;;;;;;5.70;5.30;;;;;;;16.18;79.81;100298.56;6169237;23;20017;-69
2023/07/27 01:04:00;;;;;;;5.97;5.60;;;;;;;16.19;79.37;100294.91;6138271;23;20594;-70
2023/07/27 01:06:27;;;;;;;6.25;5.90;;;;;;;16.20;79.44;100298.44;6168385;23;20040;-70
2023/07/27 01:08:54;;;;;;;6.18;5.78;;;;;;;16.21;79.07;100287.69;6147446;23;20096;-69
2023/07/27 01:11:32;;;;;;;6.47;5.95;;;;;;;16.05;79.17;100268.75;6165360;23;20040;-68
2023/07/27 01:14:13;;;;;;;5.90;5.55;;;;;;;15.78;78.88;100209.19;6166138;23;20518;-69
2023/07/27 01:16:48;;;;;;;6.15;5.82;;;;;;;16.23;79.61;100288.41;6169253;23;20020;-69
2023/07/27 01:19:57;;;;;;;6.28;5.78;;;;;;;16.30;79.42;100281.66;6144952;23;20027;-69
2023/07/27 01:22:30;;;;;;;7.60;5.80;;;;;;;16.32;78.53;100276.22;6146412;23;20198;-69
2023/07/27 01:25:25;;;;;;;6.13;5.70;;;;;;;15.27;79.13;100117.22;6190537;23;20028;-69
2023/07/27 01:28:23;;;;;;;6.63;6.05;;;;;;;16.26;79.86;100285.53;6163319;23;20020;-67
2023/07/27 01:30:57;;;;;;;5.65;5.32;;;;;;;15.61;79.45;100188.53;6138317;23;20156;-69
2023/07/27 01:33:35;;;;;;;9.25;6.13;;;;;;;15.82;79.74;100229.13;6152336;23;20582;-70
2023/07/27 01:36:14;;;;;;;6.18;5.70;;;;;;;16.24;80.25;100291.91;6140513;23;20032;-70
2023/07/27 01:38:44;;;;;;;15.20;14.40;;;;;;;16.19;79.81;100272.91;6074797;23;20401;-71
2023/07/27 01:41:13;;;;;;;6.80;6.20;;;;;;;16.21;80.15;100285.03;6113392;23;20021;-69
2023/07/27 01:43:41;;;;;;;6.03;5.63;;;;;;;15.31;79.49;100126.59;6161594;23;20137;-70
2023/07/27 01:46:08;;;;;;;6.07;5.72;;;;;;;16.20;79.32;100278.09;6146618;23;20675;-69
2023/07/27 01:48:40;;;;;;;6.80;6.30;;;;;;;16.14;80.15;100271.47;6165362;23;20087;-70
2023/07/27 01:51:10;;;;;;;6.37;5.87;;;;;;;15.56;79.58;100178.31;6149309;23;20527;-70
2023/07/27 01:53:38;;;;;;;5.93;5.53;;;;;;;15.74;80.16;100205.94;6170594;23;20795;-70
2023/07/27 01:56:05;;;;;;;6.32;5.80;;;;;;;16.15;79.60;100275.78;6140585;23;20930;-70
2023/07/27 01:58:35;;;;;;;5.88;5.47;;;;;;;16.05;79.43;100260.81;6152723;23;20021;-70
2023/07/27 02:01:03;;;;;;;6.10;5.70;;;;;;;16.14;80.21;100273.31;6174735;23;20041;-69
2023/07/27 02:03:30;;;;;;;6.07;5.53;;;;;;;15.74;80.16;100203.31;6143592;23;20035;-70
2023/07/27 02:05:57;;;;;;;5.95;5.55;;;;;;;15.75;79.94;100222.66;6193967;23;20072;-70
2023/07/27 02:08:23;;;;;;;6.25;5.93;;;;;;;16.00;80.13;100257.72;6143698;23;20025;-69
2023/07/27 02:11:05;;;;;;;6.30;5.80;;;;;;;16.14;79.76;100278.59;6147666;23;20028;-70
2023/07/27 02:13:53;;;;;;;6.17;5.73;;;;;;;16.12;80.63;100281.34;6136689;23;20017;-70
2023/07/27 02:16:39;;;;;;;6.00;5.60;;;;;;;16.10;81.57;100291.22;6142985;23;20029;-70
2023/07/27 02:19:07;;;;;;;6.30;5.90;;;;;;;15.87;82.11;100274.56;6169620;23;20181;-70
2023/07/27 02:21:35;;;;;;;6.43;6.03;;;;;;;15.94;82.73;100296.94;6142954;23;20053;-70
2023/07/27 02:24:04;;;;;;;6.43;6.03;;;;;;;15.65;82.95;100264.00;6172191;23;20043;-69
2023/07/27 02:26:31;;;;;;;6.63;6.00;;;;;;;15.92;84.51;100322.69;6154467;23;20048;-70
2023/07/27 02:28:58;;;;;;;6.13;5.72;;;;;;;15.80;85.82;100321.03;6165807;23;20009;-69
2023/07/27 02:31:24;;;;;;;6.43;5.93;;;;;;;15.97;86.88;100356.72;6147402;23;20630;-69
2023/07/27 02:33:51;;;;;;;6.40;5.90;;;;;;;15.71;87.94;100321.72;6166380;23;20353;-69
2023/07/27 02:36:17;;;;;;;6.85;6.10;;;;;;;15.82;88.69;100361.44;6151346;23;20039;-69
2023/07/27 02:38:43;;;;;;;6.63;5.95;;;;;;;15.66;91.46;100345.06;6151003;23;20035;-69
2023/07/27 02:41:10;;;;;;;6.32;5.90;;;;;;;15.47;91.60;100320.06;6171678;23;20016;-70
2023/07/27 02:43:38;;;;;;;6.78;6.03;;;;;;;15.75;92.25;100389.34;6187078;22;20025;-70
2023/07/27 02:46:05;;;;;;;6.30;5.90;;;;;;;15.57;93.48;100336.03;6142590;23;20098;-70
2023/07/27 02:48:31;;;;;;;6.18;5.78;;;;;;;15.66;95.36;100361.78;6169320;23;20017;-69
2023/07/27 02:50:58;;;;;;;6.13;5.72;;;;;;;15.33;96.61;100320.31;6172839;23;20099;-69
2023/07/27 02:53:24;;;;;;;6.38;5.97;;;;;;;15.59;98.47;100376.44;6170557;23;20036;-69
2023/07/27 02:56:03;;;;;;;6.05;5.65;;;;;;;15.58;100.00;100380.06;6147671;23;20093;-70
2023/07/27 02:58:29;;;;;;;7.95;5.90;;;;;;;15.57;100.00;100381.00;6164695;23;20111;-70
2023/07/27 03:01:00;;;;;;;6.05;5.65;;;;;;;15.53;100.00;100382.22;6170289;23;20028;-70
2023/07/27 03:03:27;;;;;;;6.70;6.20;;;;;;;15.50;100.00;100387.75;6166061;23;20072;-70
2023/07/27 03:05:58;;;;;;;6.38;5.70;;;;;;;15.00;100.00;100329.91;6143912;23;20076;-70
2023/07/27 03:08:28;;;;;;;6.38;5.97;;;;;;;15.43;100.00;100399.75;6169109;23;20017;-69
2023/07/27 03:10:55;;;;;;;6.38;5.97;;;;;;;15.15;100.00;100365.72;6147475;23;20439;-70
2023/07/27 03:13:21;;;;;;;6.72;6.22;;;;;;;15.31;100.00;100401.53;6167131;23;20115;-70
2023/07/27 03:15:48;;;;;;;5.78;5.40;;;;;;;14.78;100.00;100327.22;6171082;23;20051;-71
2023/07/27 03:18:17;;;;;;;6.30;5.90;;;;;;;14.58;100.00;100323.44;6166628;23;20482;-70
2023/07/27 03:20:43;;;;;;;6.40;6.00;;;;;;;14.84;100.00;100377.78;6145840;23;20074;-70
2023/07/27 03:23:10;;;;;;;6.53;6.10;;;;;;;14.93;100.00;100395.59;6145424;23;20025;-70
2023/07/27 03:25:37;;;;;;;6.35;5.85;;;;;;;14.88;100.00;100396.88;6174826;23;20032;-70
2023/07/27 03:28:05;;;;;;;7.28;6.15;;;;;;;14.85;100.00;100394.47;6170118;23;20028;-70
2023/07/27 03:30:33;;;;;;;6.40;6.00;;;;;;;14.87;100.00;100398.66;6146210;23;20088;-70
2023/07/27 03:33:00;;;;;;;5.95;5.55;;;;;;;14.74;100.00;100371.50;6164463;23;20017;-70
2023/07/27 03:35:26;;;;;;;9.13;6.43;;;;;;;14.90;100.00;100394.97;6153206;23;20029;-70
2023/07/27 03:37:53;;;;;;;11.98;5.95;;;;;;;14.90;100.00;100400.25;6170926;23;20029;-70
2023/07/27 03:40:20;;;;;;;5.90;5.60;;;;;;;14.48;100.00;100336.44;6145855;23;20044;-70
2023/07/27 03:42:46;;;;;;;6.47;6.07;;;;;;;14.46;100.00;100330.44;6172879;23;20048;-70
2023/07/27 03:45:14;;;;;;;6.03;5.63;;;;;;;14.44;100.00;100319.97;6154765;23;20106;-69
2023/07/27 03:47:42;;;;;;;6.28;5.88;;;;;;;14.86;100.00;100393.53;6168291;23;20039;-69
2023/07/27 03:50:12;;;;;;;6.40;5.80;;;;;;;14.81;100.00;100380.63;6140562;23;20538;-70
2023/07/27 03:52:40;;;;;;;6.35;5.85;;;;;;;14.38;100.00;100319.59;6165671;23;20566;-69
2023/07/27 03:55:06;;;;;;;6.57;6.07;;;;;;;14.71;100.00;100383.16;6148903;23;20457;-69
2023/07/27 03:57:33;;;;;;;6.70;6.30;;;;;;;14.25;100.00;100299.41;6175183;23;20121;-69
2023/07/27 04:00:00;;;;;;;6.97;6.47;;;;;;;14.71;100.00;100375.22;6152204;23;20322;-70
2023/07/27 04:02:28;;;;;;;5.95;5.55;;;;;;;14.71;100.00;100377.00;6169158;23;20221;-70
2023/07/27 04:04:55;;;;;;;6.25;5.78;;;;;;;14.69;100.00;100376.28;6174458;23;20016;-69
2023/07/27 04:07:21;;;;;;;6.43;6.03;;;;;;;14.67;100.00;100368.50;6139570;23;20017;-69
2023/07/27 04:09:48;;;;;;;7.18;6.00;;;;;;;14.55;100.00;100348.22;6171475;23;20136;-69
2023/07/27 04:12:14;;;;;;;6.70;6.20;;;;;;;14.64;100.00;100373.16;6142705;23;20021;-71
2023/07/27 04:14:41;;;;;;;6.10;5.70;;;;;;;14.14;100.00;100294.06;6172882;23;20159;-69
2023/07/27 04:17:07;;;;;;;6.32;5.93;;;;;;;14.67;100.00;100375.53;6171317;23;20036;-68
2023/07/27 04:19:35;;;;;;;6.22;5.78;;;;;;;14.58;100.00;100358.59;6171304;22;20081;-68
2023/07/27 04:22:02;;;;;;;5.97;5.57;;;;;;;14.60;100.00;100367.25;6170746;23;20032;-69
2023/07/27 04:24:29;;;;;;;6.72;6.07;;;;;;;14.24;100.00;100317.97;6142874;23;20016;-68
2023/07/27 04:26:55;;;;;;;5.95;5.65;;;;;;;14.26;100.00;100319.53;6167040;23;20021;-68
2023/07/27 04:29:22;;;;;;;6.28;5.82;;;;;;;14.51;100.00;100359.97;6145304;23;20036;-68
2023/07/27 04:31:48;;;;;;;7.25;6.55;;;;;;;14.50;100.00;100353.84;6161959;23;20053;-69
2023/07/27 04:34:15;;;;;;;7.05;6.45;;;;;;;14.49;100.00;100360.09;6150401;23;20021;-68
2023/07/27 04:36:41;;;;;;;6.80;6.30;;;;;;;14.46;100.00;100364.75;6141272;23;20021;-68
2023/07/27 04:39:08;;;;;;;6.43;5.95;;;;;;;14.26;100.00;100340.66;6146123;23;20498;-71
2023/07/27 04:41:34;;;;;;;6.03;5.63;;;;;;;14.46;100.00;100354.19;6135128;23;20088;-71
2023/07/27 04:44:00;;;;;;;6.25;5.85;;;;;;;14.18;100.00;100300.78;6192144;23;20521;-69
2023/07/27 04:46:27;;;;;;;10.93;6.43;;;;;;;14.44;100.00;100342.91;6143253;23;20051;-68
2023/07/27 04:48:53;;;;;;;6.82;6.32;;;;;;;14.42;100.00;100342.19;6169299;23;20035;-70
2023/07/27 04:51:20;;;;;;;7.10;6.50;;;;;;;14.40;100.00;100344.94;6159189;23;20113;-68
2023/07/27 04:53:46;;;;;;;6.50;6.10;;;;;;;14.27;100.00;100318.59;6166891;23;20089;-69
2023/07/27 04:56:12;;;;;;;6.68;6.20;;;;;;;14.38;100.00;100340.72;6141268;23;20618;-69
2023/07/27 04:58:39;;;;;;;6.60;6.13;;;;;;;14.33;100.00;100325.19;6172881;23;20052;-69
2023/07/27 05:01:05;;;;;;;6.18;5.78;;;;;;;14.37;100.00;100339.84;6143090;23;20029;-69
2023/07/27 05:03:32;;;;;;;6.13;5.72;;;;;;;14.45;100.00;100339.28;6168176;23;20012;-68
2023/07/27 05:05:58;;;;;;;6.40;5.82;;;;;;;14.46;100.00;100325.16;6158935;23;20016;-68
2023/07/27 05:08:24;;;;;;;15.68;7.20;;;;;;;14.45;100.00;100320.81;6170807;23;20084;-68
2023/07/27 05:10:51;;;;;;;6.85;6.32;;;;;;;14.29;100.00;100303.50;6144522;23;20092;-70
2023/07/27 05:13:18;;;;;;;6.32;5.82;;;;;;;14.20;100.00;100275.13;6165253;23;20009;-69
2023/07/27 05:15:44;;;;;;;6.50;6.00;;;;;;;13.92;100.00;100237.59;6151943;23;20021;-69
2023/07/27 05:18:11;;;;;;;6.95;6.35;;;;;;;13.76;100.00;100208.03;6166175;23;20024;-68
2023/07/27 05:20:37;;;;;;;6.75;6.10;;;;;;;14.39;100.00;100308.91;6147461;23;20524;-69
2023/07/27 05:23:03;;;;;;;6.55;6.15;;;;;;;14.34;100.00;100306.63;6172829;23;20021;-69
2023/07/27 05:25:30;;;;;;;6.80;6.30;;;;;;;14.34;100.00;100301.34;6166628;23;20103;-69
2023/07/27 05:27:56;;;;;;;6.55;6.10;;;;;;;14.02;100.00;100240.38;6157243;23;20083;-69
2023/07/27 05:30:23;;;;;;;7.60;6.25;;;;;;;14.33;100.00;100304.94;6142229;23;20028;-69
2023/07/27 05:32:49;;;;;;;7.97;6.40;;;;;;;14.37;100.00;100305.53;6147141;23;20020;-69
2023/07/27 05:35:16;;;;;;;6.30;5.90;;;;;;;14.38;100.00;100301.13;6185741;23;20100;-69
2023/07/27 05:37:46;;;;;;;6.70;6.18;;;;;;;14.29;100.00;100306.13;6140421;23;20063;-69
2023/07/27 05:40:14;;;;;;;6.40;5.78;;;;;;;14.29;100.00;100300.84;6171986;23;20028;-69
2023/07/27 05:42:41;;;;;;;6.85;6.35;;;;;;;13.71;100.00;100200.47;6140625;23;20081;-69
2023/07/27 05:45:07;;;;;;;6.60;6.05;;;;;;;14.38;100.00;100303.75;6166363;23;20091;-69
2023/07/27 05:47:34;;;;;;;6.50;6.00;;;;;;;14.40;100.00;100304.50;6140256;23;20602;-69
2023/07/27 05:50:02;;;;;;;10.95;6.72;;;;;;;14.35;100.00;100289.84;6167442;23;20087;-69
2023/07/27 05:52:28;;;;;;;6.35;5.82;;;;;;;14.43;100.00;100291.03;6168560;23;20020;-70
2023/07/27 05:54:54;;;;;;;7.30;6.65;;;;;;;14.46;100.00;100299.59;6152007;23;20084;-69
2023/07/27 05:57:21;;;;;;;7.07;6.40;;;;;;;14.50;100.00;100302.84;6189376;23;20034;-69
2023/07/27 05:59:47;;;;;;;6.55;6.00;;;;;;;14.41;100.00;100277.94;6156863;23;20365;-69
2023/07/27 06:02:29;;;;;;;6.55;5.95;;;;;;;14.52;100.00;100280.63;6168575;23;20012;-69
2023/07/27 06:04:55;;;;;;;6.65;6.07;;;;;;;14.52;100.00;100270.06;6141132;23;20021;-70
2023/07/27 06:07:22;;;;;;;6.50;5.90;;;;;;;14.51;100.00;100262.25;6177038;23;20020;-73
2023/07/27 06:09:48;;;;;;;6.32;5.97;;;;;;;14.43;100.00;100235.59;6146911;23;20027;-69
2023/07/27 06:12:15;;;;;;;7.00;6.50;;;;;;;14.53;100.00;100244.50;6172909;23;20140;-69
2023/07/27 06:14:41;;;;;;;6.35;5.95;;;;;;;14.56;100.00;100239.88;6143289;23;20024;-70
2023/07/27 06:17:08;;;;;;;6.68;6.18;;;;;;;14.61;100.00;100241.31;6173017;23;20091;-69
2023/07/27 06:19:34;;;;;;;7.10;6.53;;;;;;;14.66;100.00;100234.72;6139005;23;20012;-72
2023/07/27 06:22:01;;;;;;;6.90;6.40;;;;;;;14.82;100.00;100254.69;6169120;23;20094;-70
2023/07/27 06:24:28;;;;;;;7.00;6.50;;;;;;;14.59;100.00;100217.66;6165630;23;20044;-69
2023/07/27 06:26:54;;;;;;;7.25;5.95;;;;;;;14.80;100.00;100240.75;6145046;23;20035;-69
2023/07/27 06:29:21;;;;;;;6.35;5.95;;;;;;;14.87;100.00;100241.94;6170257;23;20084;-69
2023/07/27 06:31:47;;;;;;;6.28;5.88;;;;;;;14.38;100.00;100172.59;6171852;23;20012;-69
2023/07/27 06:34:14;;;;;;;5.97;5.57;;;;;;;14.58;100.00;100204.59;6138496;23;20029;-68
2023/07/27 06:36:40;;;;;;;6.40;6.00;;;;;;;14.95;100.00;100239.56;6175027;23;20301;-69
2023/07/27 06:39:07;;;;;;;6.50;6.10;;;;;;;14.92;100.00;100231.88;6143582;23;20017;-69
2023/07/27 06:41:33;;;;;;;6.80;6.30;;;;;;;15.03;100.00;100238.97;6174868;23;20427;-69
2023/07/27 06:44:00;;;;;;;6.78;6.28;;;;;;;15.09;100.00;100243.75;6151829;23;20021;-69
2023/07/27 06:46:27;;;;;;;6.40;5.90;;;;;;;14.90;100.00;100199.44;6168576;23;20037;-69
2023/07/27 06:48:53;;;;;;;6.70;6.20;;;;;;;15.09;100.00;100226.09;6139659;23;20037;-69
2023/07/27 06:51:20;;;;;;;6.65;6.15;;;;;;;14.90;100.00;100187.06;6172353;23;20114;-69
2023/07/27 06:53:46;;;;;;;6.95;6.35;;;;;;;15.22;100.00;100228.63;6144954;23;20077;-69
2023/07/27 06:56:17;;;;;;;7.97;6.30;;;;;;;15.22;100.00;100225.16;6170322;23;20031;-69
2023/07/27 06:58:46;;;;;;;8.05;6.50;;;;;;;14.86;100.00;100167.16;6142521;23;20013;-69
2023/07/27 07:01:12;;;;;;;6.40;5.90;;;;;;;14.85;100.00;100159.34;6170873;23;20364;-69
2023/07/27 07:03:39;;;;;;;6.35;5.95;;;;;;;15.03;100.00;100162.31;6141925;23;20029;-69
2023/07/27 07:06:05;;;;;;;6.53;6.10;;;;;;;15.23;100.00;100179.22;6167484;23;20031;-69
2023/07/27 07:08:31;;;;;;;6.63;6.13;;;;;;;15.51;100.00;100218.34;6140263;23;20084;-69
2023/07/27 07:10:58;;;;;;;6.88;6.07;;;;;;;15.53;100.00;100213.78;6172502;23;20036;-69
2023/07/27 07:13:25;;;;;;;6.68;6.18;;;;;;;15.52;100.00;100200.69;6150799;23;20016;-69
2023/07/27 07:15:52;;;;;;;7.40;6.70;;;;;;;15.56;100.00;100208.25;6168675;23;20035;-70
2023/07/27 07:18:18;;;;;;;6.75;6.25;;;;;;;15.40;100.00;100167.31;6168327;23;20017;-67
2023/07/27 07:20:46;;;;;;;6.68;6.13;;;;;;;15.77;100.00;100201.38;6166855;23;20032;-69
2023/07/27 07:23:15;;;;;;;6.60;6.10;;;;;;;15.87;100.00;100200.47;6171823;23;20388;-70
2023/07/27 07:25:42;;;;;;;6.50;6.00;;;;;;;15.91;100.00;100212.50;6172491;23;20053;-70
2023/07/27 07:28:08;;;;;;;6.43;5.93;;;;;;;15.85;100.00;100193.63;6175711;23;20035;-70
2023/07/27 07:30:41;;;;;;;6.15;5.75;;;;;;;15.33;100.00;100128.16;6169100;23;22279;-70
2023/07/27 07:33:08;;;;;;;6.10;5.72;;;;;;;15.66;100.00;100157.25;6140636;23;20089;-67
2023/07/27 07:35:39;;;;;;;5.57;5.28;;;;;;;15.81;100.00;100187.75;6167916;23;20021;-68
2023/07/27 07:38:06;;;;;;;6.35;5.90;;;;;;;15.78;100.00;100182.72;6156633;23;20017;-69
2023/07/27 07:40:33;;;;;;;6.47;5.97;;;;;;;15.85;100.00;100172.47;6149025;23;20088;-69
2023/07/27 07:43:00;;;;;;;6.60;6.10;;;;;;;15.95;100.00;100183.97;6175048;23;20126;-68
2023/07/27 07:45:26;;;;;;;5.75;5.43;;;;;;;16.03;100.00;100186.81;6141342;23;20016;-68
2023/07/27 07:47:52;;;;;;;6.07;5.60;;;;;;;15.65;100.00;100126.47;6165095;23;20110;-68
2023/07/27 07:50:19;;;;;;;6.22;5.80;;;;;;;15.63;100.00;100121.28;6144061;23;20009;-68
2023/07/27 07:52:45;;;;;;;5.57;5.28;;;;;;;16.00;100.00;100183.59;6172486;23;20028;-68
2023/07/27 07:55:16;;;;;;;6.20;5.90;;;;;;;16.05;100.00;100184.88;6139668;23;20124;-69
2023/07/27 07:57:42;;;;;;;6.05;5.65;;;;;;;16.14;100.00;100184.13;6168399;23;20832;-68
2023/07/27 08:00:09;;;;;;;6.65;6.15;;;;;;;16.17;100.00;100180.38;6165349;23;20028;-67
2023/07/27 08:02:39;;;;;;;5.82;5.53;;;;;;;16.23;100.00;100186.97;6168944;23;20044;-67
2023/07/27 08:05:05;;;;;;;5.90;5.60;;;;;;;16.21;100.00;100173.84;6139435;23;20061;-68
2023/07/27 08:07:35;;;;;;;5.72;5.43;;;;;;;15.85;100.00;100117.75;6168916;23;20025;-68
2023/07/27 08:10:02;;;;;;;6.82;6.22;;;;;;;16.33;100.00;100185.22;6147951;23;20091;-67
2023/07/27 08:12:29;;;;;;;5.75;5.40;;;;;;;16.40;100.00;100183.75;6166562;23;20089;-70
2023/07/27 08:14:55;;;;;;;5.50;5.20;;;;;;;16.30;100.00;100162.50;6169818;23;20099;-68
2023/07/27 08:17:22;;;;;;;5.63;5.32;;;;;;;16.51;100.00;100181.00;6136098;23;20045;-68
2023/07/27 08:19:49;;;;;;;5.57;5.28;;;;;;;16.61;100.00;100181.06;6171263;23;20035;-68
2023/07/27 08:22:15;;;;;;;5.57;5.28;;;;;;;16.64;100.00;100178.16;6140912;23;20104;-69
2023/07/27 08:24:43;;;;;;;5.88;5.30;;;;;;;16.43;100.00;100129.66;6163824;23;20486;-68
2023/07/27 08:27:10;;;;;;;5.50;5.20;;;;;;;16.55;100.00;100163.03;6167175;23;20027;-68
2023/07/27 08:29:36;;;;;;;5.85;5.55;;;;;;;16.62;100.00;100168.63;6139229;23;20027;-68
2023/07/27 08:32:03;;;;;;;5.95;5.65;;;;;;;16.40;100.00;100127.25;6163940;23;20048;-72
2023/07/27 08:34:30;;;;;;;5.47;5.18;;;;;;;16.70;100.00;100164.38;6138590;23;20084;-68
2023/07/27 08:36:56;;;;;;;5.55;5.25;;;;;;;16.69;100.00;100164.50;6166671;23;20032;-68
2023/07/27 08:39:23;;;;;;;5.40;5.10;;;;;;;15.89;100.00;100038.94;6147874;23;20032;-69
2023/07/27 08:41:49;;;;;;;5.50;5.20;;;;;;;15.60;100.00;99980.56;6147038;23;20029;-68
2023/07/27 08:44:16;;;;;;;6.57;6.25;;;;;;;16.73;100.00;100161.44;6168557;23;20021;-67
2023/07/27 08:46:43;;;;;;;5.70;5.30;;;;;;;16.42;100.00;100097.03;6167840;23;20021;-68
2023/07/27 08:49:13;;;;;;;5.57;5.28;;;;;;;16.87;100.00;100162.09;6147022;23;20029;-68
2023/07/27 08:51:43;;;;;;;5.45;5.18;;;;;;;16.65;100.00;100121.53;6170884;23;20050;-70
2023/07/27 08:54:10;;;;;;;5.90;5.60;;;;;;;16.98;100.00;100156.72;6163008;23;20252;-68
2023/07/27 08:56:37;;;;;;;6.88;6.30;;;;;;;17.00;100.00;100157.41;6170580;23;20024;-69
2023/07/27 08:59:03;;;;;;;6.47;5.97;;;;;;;16.93;100.00;100143.00;6165323;23;20044;-68
2023/07/27 09:01:31;;;;;;;5.50;5.20;;;;;;;17.02;100.00;100160.75;6173426;23;20511;-69
2023/07/27 09:03:57;;;;;;;5.47;5.18;;;;;;;17.08;100.00;100157.56;6136449;23;20025;-69
2023/07/27 09:06:44;;;;;;;5.97;5.57;;;;;;;17.06;100.00;100151.56;6173137;23;20028;-69
2023/07/27 09:09:16;;;;;;;5.72;5.43;;;;;;;17.12;100.00;100155.50;6170109;23;20032;-69
2023/07/27 09:11:46;;;;;;;5.63;5.32;;;;;;;17.11;100.00;100154.63;6137603;23;20017;-68
2023/07/27 09:14:14;;;;;;;5.90;5.60;;;;;;;17.13;100.00;100150.03;6168099;23;20038;-68
2023/07/27 09:16:40;;;;;;;5.68;5.38;;;;;;;17.17;100.00;100163.03;6164795;23;20707;-68
2023/07/27 09:19:07;;;;;;;5.57;5.28;;;;;;;17.17;100.00;100158.56;6138191;23;20094;-68
2023/07/27 09:21:44;;;;;;;5.63;5.22;;;;;;;17.14;100.00;100157.03;6171515;23;20016;-69
2023/07/27 09:24:13;;;;;;;6.03;5.53;;;;;;;17.15;100.00;100157.84;6147724;23;20121;-68
2023/07/27 09:26:47;;;;;;;5.40;5.10;;;;;;;17.24;100.00;100169.44;6136723;23;20069;-68
2023/07/27 09:29:15;;;;;;;5.68;5.38;;;;;;;17.30;100.00;100164.47;6167271;23;20032;-70
2023/07/27 09:31:49;;;;;;;5.60;5.28;;;;;;;16.93;100.00;100106.72;6196210;23;20052;-68
2023/07/27 09:34:17;;;;;;;5.68;5.38;;;;;;;17.30;100.00;100161.81;6139096;23;20036;-69
2023/07/27 09:36:44;;;;;;;5.80;5.50;;;;;;;17.25;100.00;100156.06;6176230;23;20379;-68
2023/07/27 09:39:11;;;;;;;5.72;5.35;;;;;;;17.30;100.00;100160.97;6138112;23;20040;-69
2023/07/27 09:41:38;;;;;;;5.65;5.35;;;;;;;17.26;100.00;100148.94;6171836;23;20398;-69
2023/07/27 09:44:05;;;;;;;5.60;5.30;;;;;;;17.36;100.00;100163.06;6135005;23;20035;-68
2023/07/27 09:46:32;;;;;;;5.75;5.35;;;;;;;17.29;100.00;100146.84;6174603;23;20031;-68
2023/07/27 09:49:00;;;;;;;5.85;5.55;;;;;;;17.37;100.00;100158.59;6151340;23;20092;-68
2023/07/27 09:51:27;;;;;;;5.82;5.53;;;;;;;17.25;100.00;100139.31;6145915;23;20294;-67
2023/07/27 09:53:55;;;;;;;5.50;5.20;;;;;;;17.49;100.00;100153.03;6176930;23;20056;-69
2023/07/27 09:56:22;;;;;;;5.75;5.45;;;;;;;17.48;100.00;100140.75;6169726;23;20099;-68
2023/07/27 09:58:49;;;;;;;6.22;5.82;;;;;;;17.40;100.00;100110.56;6165935;23;20021;-68
2023/07/27 10:01:16;;;;;;;5.85;5.55;;;;;;;17.73;100.00;100144.66;6126813;23;20049;-69
2023/07/27 10:03:45;;;;;;;5.80;5.50;;;;;;;17.87;100.00;100151.38;6172854;23;20039;-69
2023/07/27 10:06:15;;;;;;;6.00;5.70;;;;;;;17.80;100.00;100150.25;6140779;23;20025;-69
2023/07/27 10:08:44;;;;;;;6.05;5.70;;;;;;;17.77;100.00;100129.28;6168115;23;20051;-68
2023/07/27 10:11:10;;;;;;;5.68;5.38;;;;;;;17.79;100.00;100130.00;6144227;23;20021;-67
2023/07/27 10:13:44;;;;;;;5.72;5.35;;;;;;;17.65;100.00;100110.03;6173333;23;20498;-68
2023/07/27 10:16:16;;;;;;;6.38;5.88;;;;;;;17.79;100.00;100121.19;6146098;23;20081;-70
2023/07/27 10:18:45;;;;;;;5.80;5.40;;;;;;;17.92;100.00;100119.97;6171707;23;20025;-68
2023/07/27 10:21:21;;;;;;;6.00;5.60;;;;;;;17.79;100.00;100090.19;6142256;23;20020;-68
2023/07/27 10:24:02;;;;;;;6.40;5.90;;;;;;;18.21;100.00;100128.84;6159710;23;20388;-69
2023/07/27 10:26:46;;;;;;;6.43;6.03;;;;;;;17.83;100.00;100053.56;6142355;23;20089;-69
2023/07/27 10:29:24;;;;;;;5.60;5.30;;;;;;;18.23;100.00;100106.47;6171830;23;20055;-69
2023/07/27 10:32:02;;;;;;;5.90;5.50;;;;;;;18.52;100.00;100108.19;6148047;23;20053;-68
2023/07/27 10:34:30;;;;;;;5.40;5.10;;;;;;;18.61;100.00;100102.00;6167897;23;20033;-71
2023/07/27 10:37:06;;;;;;;5.88;5.47;;;;;;;18.19;100.00;100040.53;6138977;23;20040;-69
2023/07/27 10:39:41;;;;;;;5.30;5.10;;;;;;;18.55;100.00;100094.63;6146017;23;22246;-69
2023/07/27 10:42:10;;;;;;;6.20;5.80;;;;;;;18.29;100.00;100087.31;6174741;23;20036;-69
2023/07/27 10:44:51;;;;;;;5.70;5.40;;;;;;;18.35;100.00;100104.47;6168722;23;20020;-69
2023/07/27 10:47:34;;;;;;;5.70;5.40;;;;;;;18.34;100.00;100098.34;6137057;23;20020;-69
2023/07/27 10:50:03;;;;;;;5.72;5.43;;;;;;;18.40;100.00;100099.59;6190982;23;20081;-68
2023/07/27 10:52:32;;;;;;;5.63;5.32;;;;;;;18.60;100.00;100104.81;6151480;23;20622;-69
2023/07/27 10:54:59;;;;;;;5.80;5.40;;;;;;;18.55;100.00;100060.06;6139964;23;20096;-69
2023/07/27 10:57:28;;;;;;;5.72;5.43;;;;;;;18.66;100.00;100057.22;6170105;23;20682;-68
2023/07/27 10:59:55;;;;;;;6.10;5.70;;;;;;;18.96;100.00;100054.41;6145267;23;20053;-70
2023/07/27 11:02:22;;;;;;;6.20;5.80;;;;;;;19.28;100.00;100073.38;6170007;23;20366;-68
2023/07/27 11:05:02;;;;;;;5.78;5.47;;;;;;;19.51;100.00;100040.97;6145401;23;20033;-68
2023/07/27 11:07:31;;;;;;;6.05;5.65;;;;;;;19.60;100.00;100028.56;6166583;23;20032;-69
2023/07/27 11:09:59;;;;;;;6.50;6.00;;;;;;;18.92;100.00;99945.72;6141903;23;20021;-68
2023/07/27 11:12:25;;;;;;;5.97;5.68;;;;;;;18.77;100.00;99957.81;6172993;23;20028;-68
2023/07/27 11:14:52;;;;;;;6.10;5.70;;;;;;;19.08;100.00;100046.09;6143615;23;20021;-69
2023/07/27 11:17:19;;;;;;;5.68;5.38;;;;;;;19.13;100.00;100062.41;6170109;23;20048;-68
2023/07/27 11:19:47;;;;;;;6.20;5.80;;;;;;;19.24;100.00;100056.03;6141344;23;20021;-68
2023/07/27 11:22:14;;;;;;;6.18;5.78;;;;;;;20.02;100.00;100070.47;6142373;23;20048;-69
2023/07/27 11:24:41;;;;;;;6.03;5.60;;;;;;;20.48;100.00;100007.09;6173259;23;20028;-69